sensor_id;sensor_type;location;lat;lon;timestamp;pressure;altitude;pressure_sealevel;temperature;humidity
21011;BME280;10663;42.714;23.274;2022-11-15T00:00:02;95374.69;;;3.73;100.00
21011;BME280;10663;42.714;23.274;2022-11-15T00:01:52;95388.19;;;3.77;100.00
21011;BME280;10663;42.714;23.274;2022-11-15T00:03:42;95387.31;;;4.03;100.00
21011;BME280;10663;42.714;23.274;2022-11-15T00:05:34;95376.81;;;4.03;99.26
21011;BME280;10663;42.714;23.274;2022-11-15T00:07:25;95378.25;;;3.92;99.42
21011;BME280;10663;42.714;23.274;2022-11-15T00:09:14;95381.13;;;3.84;99.35
21011;BME280;10663;42.714;23.274;2022-11-15T00:11:03;95376.44;;;3.99;99.57
21011;BME280;10663;42.714;23.274;2022-11-15T00:12:53;95377.69;;;3.90;98.96
21011;BME280;10663;42.714;23.274;2022-11-15T00:14:42;95379.66;;;4.08;99.96
21011;BME280;10663;42.714;23.274;2022-11-15T00:16:32;95379.41;;;4.16;98.39
21011;BME280;10663;42.714;23.274;2022-11-15T00:18:21;95373.59;;;4.01;98.49
21011;BME280;10663;42.714;23.274;2022-11-15T00:20:11;95368.75;;;4.04;97.39
21011;BME280;10663;42.714;23.274;2022-11-15T00:22:00;95371.22;;;3.99;97.30
21011;BME280;10663;42.714;23.274;2022-11-15T00:23:50;95371.34;;;4.11;97.17
21011;BME280;10663;42.714;23.274;2022-11-15T00:25:40;95367.78;;;3.99;96.79
21011;BME280;10663;42.714;23.274;2022-11-15T00:27:30;95373.41;;;4.02;97.25
21011;BME280;10663;42.714;23.274;2022-11-15T00:29:19;95365.53;;;4.02;96.74
21011;BME280;10663;42.714;23.274;2022-11-15T00:31:12;95365.69;;;4.14;96.69
21011;BME280;10663;42.714;23.274;2022-11-15T00:33:03;95363.56;;;3.98;97.06
21011;BME280;10663;42.714;23.274;2022-11-15T00:34:53;95361.53;;;4.00;97.45
21011;BME280;10663;42.714;23.274;2022-11-15T00:36:42;95359.94;;;3.99;97.99
21011;BME280;10663;42.714;23.274;2022-11-15T00:38:36;95359.72;;;4.00;97.81
21011;BME280;10663;42.714;23.274;2022-11-15T00:40:26;95366.75;;;4.06;97.96
21011;BME280;10663;42.714;23.274;2022-11-15T00:42:16;95367.56;;;4.07;97.43
21011;BME280;10663;42.714;23.274;2022-11-15T00:44:05;95369.41;;;4.00;96.90
21011;BME280;10663;42.714;23.274;2022-11-15T00:45:54;95370.19;;;4.00;96.05
21011;BME280;10663;42.714;23.274;2022-11-15T00:47:44;95363.97;;;3.95;96.93
21011;BME280;10663;42.714;23.274;2022-11-15T00:49:35;95359.38;;;3.77;98.85
21011;BME280;10663;42.714;23.274;2022-11-15T00:51:24;95354.25;;;4.02;98.85
21011;BME280;10663;42.714;23.274;2022-11-15T00:53:14;95355.06;;;4.09;97.79
21011;BME280;10663;42.714;23.274;2022-11-15T00:55:03;95352.75;;;4.19;96.18
21011;BME280;10663;42.714;23.274;2022-11-15T00:56:53;95362.34;;;4.00;96.17
21011;BME280;10663;42.714;23.274;2022-11-15T00:58:42;95366.34;;;4.03;96.75
21011;BME280;10663;42.714;23.274;2022-11-15T01:00:32;95359.81;;;3.67;97.36
21011;BME280;10663;42.714;23.274;2022-11-15T01:02:21;95356.63;;;3.39;98.60
21011;BME280;10663;42.714;23.274;2022-11-15T01:04:11;95355.47;;;3.15;99.42
21011;BME280;10663;42.714;23.274;2022-11-15T01:06:00;95354.22;;;2.91;100.00
21011;BME280;10663;42.714;23.274;2022-11-15T01:07:53;95355.06;;;2.79;100.00
21011;BME280;10663;42.714;23.274;2022-11-15T01:09:43;95353.44;;;2.71;100.00
21011;BME280;10663;42.714;23.274;2022-11-15T01:11:32;95342.78;;;3.06;100.00
21011;BME280;10663;42.714;23.274;2022-11-15T01:13:21;95353.44;;;3.24;100.00
21011;BME280;10663;42.714;23.274;2022-11-15T01:15:11;95348.41;;;3.03;100.00
21011;BME280;10663;42.714;23.274;2022-11-15T01:17:00;95356.47;;;2.88;100.00
21011;BME280;10663;42.714;23.274;2022-11-15T01:18:50;95353.03;;;2.74;100.00
21011;BME280;10663;42.714;23.274;2022-11-15T01:20:42;95350.97;;;2.56;100.00
21011;BME280;10663;42.714;23.274;2022-11-15T01:22:32;95347.16;;;2.46;100.00
21011;BME280;10663;42.714;23.274;2022-11-15T01:24:21;95350.97;;;2.37;100.00
21011;BME280;10663;42.714;23.274;2022-11-15T01:26:13;95357.41;;;2.47;100.00
21011;BME280;10663;42.714;23.274;2022-11-15T01:28:02;95351.75;;;2.37;100.00
21011;BME280;10663;42.714;23.274;2022-11-15T01:29:52;95350.97;;;2.43;100.00
21011;BME280;10663;42.714;23.274;2022-11-15T01:31:41;95354.59;;;2.42;100.00
21011;BME280;10663;42.714;23.274;2022-11-15T01:33:34;95354.59;;;2.49;100.00
21011;BME280;10663;42.714;23.274;2022-11-15T01:35:25;95354.78;;;2.41;100.00
21011;BME280;10663;42.714;23.274;2022-11-15T01:37:14;95350.34;;;2.35;100.00
21011;BME280;10663;42.714;23.274;2022-11-15T01:39:03;95358.38;;;2.27;100.00
21011;BME280;10663;42.714;23.274;2022-11-15T01:40:53;95351.31;;;2.20;100.00
21011;BME280;10663;42.714;23.274;2022-11-15T01:42:44;95352.13;;;2.21;100.00
21011;BME280;10663;42.714;23.274;2022-11-15T01:44:45;95350.50;;;2.20;100.00
21011;BME280;10663;42.714;23.274;2022-11-15T01:46:37;95335.81;;;2.12;100.00
21011;BME280;10663;42.714;23.274;2022-11-15T01:48:32;95338.69;;;2.37;100.00
21011;BME280;10663;42.714;23.274;2022-11-15T01:50:26;95341.34;;;2.44;100.00
21011;BME280;10663;42.714;23.274;2022-11-15T01:52:19;95339.88;;;2.28;100.00
21011;BME280;10663;42.714;23.274;2022-11-15T01:54:13;95341.91;;;2.33;100.00
21011;BME280;10663;42.714;23.274;2022-11-15T01:56:07;95341.13;;;2.45;100.00
21011;BME280;10663;42.714;23.274;2022-11-15T01:57:59;95339.72;;;2.56;100.00
21011;BME280;10663;42.714;23.274;2022-11-15T01:59:51;95340.56;;;2.63;100.00
21011;BME280;10663;42.714;23.274;2022-11-15T02:01:41;95339.16;;;2.80;100.00
21011;BME280;10663;42.714;23.274;2022-11-15T02:03:58;95340.75;;;2.55;100.00
21011;BME280;10663;42.714;23.274;2022-11-15T02:05:45;95332.69;;;2.37;100.00
21011;BME280;10663;42.714;23.274;2022-11-15T02:07:36;95333.44;;;2.31;100.00
21011;BME280;10663;42.714;23.274;2022-11-15T02:09:26;95338.25;;;2.20;100.00
21011;BME280;10663;42.714;23.274;2022-11-15T02:11:15;95340.06;;;2.20;100.00
21011;BME280;10663;42.714;23.274;2022-11-15T02:13:05;95332.19;;;2.13;100.00
21011;BME280;10663;42.714;23.274;2022-11-15T02:14:55;95332.03;;;2.28;100.00
21011;BME280;10663;42.714;23.274;2022-11-15T02:18:59;95339.84;;;2.21;100.00
21011;BME280;10663;42.714;23.274;2022-11-15T02:20:58;95334.09;;;2.52;100.00
21011;BME280;10663;42.714;23.274;2022-11-15T02:25:47;95339.47;;;2.18;100.00
21011;BME280;10663;42.714;23.274;2022-11-15T02:30:41;95331.78;;;2.10;100.00
21011;BME280;10663;42.714;23.274;2022-11-15T02:32:19;95330.97;;;2.03;100.00
21011;BME280;10663;42.714;23.274;2022-11-15T02:34:17;95327.34;;;2.10;100.00
21011;BME280;10663;42.714;23.274;2022-11-15T02:36:18;95324.56;;;2.12;100.00
21011;BME280;10663;42.714;23.274;2022-11-15T02:42:24;95327.34;;;1.97;100.00
21011;BME280;10663;42.714;23.274;2022-11-15T02:44:37;95326.16;;;2.13;100.00
21011;BME280;10663;42.714;23.274;2022-11-15T02:46:36;95325.38;;;2.19;100.00
21011;BME280;10663;42.714;23.274;2022-11-15T02:48:47;95330.06;;;2.50;100.00
21011;BME280;10663;42.714;23.274;2022-11-15T02:50:38;95324.81;;;2.30;100.00
21011;BME280;10663;42.714;23.274;2022-11-15T02:52:27;95326.03;;;2.34;100.00
21011;BME280;10663;42.714;23.274;2022-11-15T02:54:35;95328.25;;;2.44;100.00
21011;BME280;10663;42.714;23.274;2022-11-15T02:56:24;95329.84;;;2.32;100.00
21011;BME280;10663;42.714;23.274;2022-11-15T03:00:22;95332.50;;;2.58;100.00
21011;BME280;10663;42.714;23.274;2022-11-15T03:04:28;95344.16;;;2.49;100.00
21011;BME280;10663;42.714;23.274;2022-11-15T03:08:37;95337.53;;;3.12;100.00
21011;BME280;10663;42.714;23.274;2022-11-15T03:12:51;95336.69;;;3.51;100.00
21011;BME280;10663;42.714;23.274;2022-11-15T03:14:55;95329.41;;;3.60;98.37
21011;BME280;10663;42.714;23.274;2022-11-15T03:17:01;95332.63;;;3.62;96.74
21011;BME280;10663;42.714;23.274;2022-11-15T03:19:08;95325.53;;;3.75;95.72
21011;BME280;10663;42.714;23.274;2022-11-15T03:21:03;95319.66;;;3.87;94.75
21011;BME280;10663;42.714;23.274;2022-11-15T03:22:56;95319.41;;;3.95;94.59
21011;BME280;10663;42.714;23.274;2022-11-15T03:24:52;95320.03;;;3.97;94.22
21011;BME280;10663;42.714;23.274;2022-11-15T03:26:43;95321.44;;;3.99;92.66
21011;BME280;10663;42.714;23.274;2022-11-15T03:28:49;95329.06;;;4.01;92.03
21011;BME280;10663;42.714;23.274;2022-11-15T03:30:39;95319.19;;;4.03;91.33
21011;BME280;10663;42.714;23.274;2022-11-15T03:32:32;95318.00;;;3.99;91.04
21011;BME280;10663;42.714;23.274;2022-11-15T03:34:39;95318.78;;;4.06;91.75
21011;BME280;10663;42.714;23.274;2022-11-15T03:36:32;95313.94;;;4.09;91.65
21011;BME280;10663;42.714;23.274;2022-11-15T03:38:26;95314.69;;;4.10;91.77
21011;BME280;10663;42.714;23.274;2022-11-15T03:40:23;95305.41;;;4.14;91.66
21011;BME280;10663;42.714;23.274;2022-11-15T03:42:34;95310.50;;;4.09;91.04
21011;BME280;10663;42.714;23.274;2022-11-15T03:44:40;95306.72;;;3.98;91.77
21011;BME280;10663;42.714;23.274;2022-11-15T03:46:47;95312.41;;;3.89;91.75
21011;BME280;10663;42.714;23.274;2022-11-15T03:48:44;95303.53;;;3.90;93.22
21011;BME280;10663;42.714;23.274;2022-11-15T03:50:35;95306.03;;;3.58;97.72
21011;BME280;10663;42.714;23.274;2022-11-15T03:52:25;95298.38;;;3.70;99.32
21011;BME280;10663;42.714;23.274;2022-11-15T03:54:14;95301.97;;;3.82;98.65
21011;BME280;10663;42.714;23.274;2022-11-15T03:56:04;95302.28;;;3.92;97.63
21011;BME280;10663;42.714;23.274;2022-11-15T03:57:59;95299.06;;;3.97;97.05
21011;BME280;10663;42.714;23.274;2022-11-15T03:59:49;95295.44;;;3.98;96.76
21011;BME280;10663;42.714;23.274;2022-11-15T04:01:38;95297.41;;;4.09;96.40
21011;BME280;10663;42.714;23.274;2022-11-15T04:03:28;95291.75;;;4.05;95.37
21011;BME280;10663;42.714;23.274;2022-11-15T04:05:17;95290.34;;;4.09;95.77
21011;BME280;10663;42.714;23.274;2022-11-15T04:07:07;95299.22;;;4.02;96.58
21011;BME280;10663;42.714;23.274;2022-11-15T04:08:56;95286.13;;;4.08;96.25
21011;BME280;10663;42.714;23.274;2022-11-15T04:10:49;95291.47;;;3.75;97.93
21011;BME280;10663;42.714;23.274;2022-11-15T04:12:41;95284.50;;;4.01;98.27
21011;BME280;10663;42.714;23.274;2022-11-15T04:14:32;95289.69;;;4.14;96.30
21011;BME280;10663;42.714;23.274;2022-11-15T04:16:21;95291.38;;;4.02;95.63
21011;BME280;10663;42.714;23.274;2022-11-15T04:18:10;95292.72;;;4.11;95.38
21011;BME280;10663;42.714;23.274;2022-11-15T04:19:59;95288.66;;;4.22;94.77
21011;BME280;10663;42.714;23.274;2022-11-15T04:22:07;95286.47;;;4.12;95.09
21011;BME280;10663;42.714;23.274;2022-11-15T04:24:16;95281.28;;;4.05;95.96
21011;BME280;10663;42.714;23.274;2022-11-15T04:26:09;95285.88;;;4.17;96.39
21011;BME280;10663;42.714;23.274;2022-11-15T04:27:59;95283.41;;;4.22;95.84
21011;BME280;10663;42.714;23.274;2022-11-15T04:29:49;95293.22;;;4.33;95.26
21011;BME280;10663;42.714;23.274;2022-11-15T04:31:38;95285.41;;;4.26;95.72
21011;BME280;10663;42.714;23.274;2022-11-15T04:33:27;95288.47;;;4.17;96.25
21011;BME280;10663;42.714;23.274;2022-11-15T04:35:17;95274.19;;;4.12;96.62
21011;BME280;10663;42.714;23.274;2022-11-15T04:37:06;95281.44;;;4.17;96.61
21011;BME280;10663;42.714;23.274;2022-11-15T04:39:02;95281.38;;;4.24;96.37
21011;BME280;10663;42.714;23.274;2022-11-15T04:40:51;95282.81;;;4.20;96.18
21011;BME280;10663;42.714;23.274;2022-11-15T04:42:41;95283.75;;;4.32;100.00
21011;BME280;10663;42.714;23.274;2022-11-15T04:44:32;95283.81;;;3.81;99.85
21011;BME280;10663;42.714;23.274;2022-11-15T04:46:22;95288.31;;;3.60;100.00
21011;BME280;10663;42.714;23.274;2022-11-15T04:48:12;95286.00;;;3.84;100.00
21011;BME280;10663;42.714;23.274;2022-11-15T04:50:02;95283.25;;;3.72;99.78
21011;BME280;10663;42.714;23.274;2022-11-15T04:51:52;95287.25;;;3.74;99.89
21011;BME280;10663;42.714;23.274;2022-11-15T04:53:42;95286.03;;;3.77;99.34
21011;BME280;10663;42.714;23.274;2022-11-15T04:55:32;95290.84;;;3.87;99.02
21011;BME280;10663;42.714;23.274;2022-11-15T04:57:21;95289.09;;;3.67;99.40
21011;BME280;10663;42.714;23.274;2022-11-15T04:59:10;95288.22;;;3.87;99.41
21011;BME280;10663;42.714;23.274;2022-11-15T05:01:09;95295.13;;;3.68;99.63
21011;BME280;10663;42.714;23.274;2022-11-15T05:02:59;95292.00;;;3.39;100.00
21011;BME280;10663;42.714;23.274;2022-11-15T05:05:07;95288.84;;;3.18;100.00
21011;BME280;10663;42.714;23.274;2022-11-15T05:06:57;95292.28;;;2.92;100.00
21011;BME280;10663;42.714;23.274;2022-11-15T05:08:46;95296.09;;;2.83;100.00
21011;BME280;10663;42.714;23.274;2022-11-15T05:10:35;95306.16;;;2.86;100.00
21011;BME280;10663;42.714;23.274;2022-11-15T05:12:24;95298.72;;;2.83;100.00
21011;BME280;10663;42.714;23.274;2022-11-15T05:14:14;95300.13;;;2.79;100.00
21011;BME280;10663;42.714;23.274;2022-11-15T05:16:03;95294.50;;;3.08;100.00
21011;BME280;10663;42.714;23.274;2022-11-15T05:17:57;95295.91;;;2.71;100.00
21011;BME280;10663;42.714;23.274;2022-11-15T05:19:47;95290.06;;;2.69;100.00
21011;BME280;10663;42.714;23.274;2022-11-15T05:21:37;95277.97;;;3.01;100.00
21011;BME280;10663;42.714;23.274;2022-11-15T05:23:26;95280.56;;;3.21;100.00
21011;BME280;10663;42.714;23.274;2022-11-15T05:25:16;95288.88;;;2.78;100.00
21011;BME280;10663;42.714;23.274;2022-11-15T05:27:05;95289.22;;;2.22;100.00
21011;BME280;10663;42.714;23.274;2022-11-15T05:28:56;95282.00;;;2.24;100.00
21011;BME280;10663;42.714;23.274;2022-11-15T05:30:46;95275.56;;;2.40;100.00
21011;BME280;10663;42.714;23.274;2022-11-15T05:32:36;95279.97;;;2.13;100.00
21011;BME280;10663;42.714;23.274;2022-11-15T05:34:26;95283.44;;;2.60;100.00
21011;BME280;10663;42.714;23.274;2022-11-15T05:36:31;95284.25;;;2.67;100.00
21011;BME280;10663;42.714;23.274;2022-11-15T05:38:23;95279.81;;;2.68;100.00
21011;BME280;10663;42.714;23.274;2022-11-15T05:40:13;95286.06;;;2.80;100.00
21011;BME280;10663;42.714;23.274;2022-11-15T05:42:09;95285.66;;;2.63;100.00
21011;BME280;10663;42.714;23.274;2022-11-15T05:44:01;95284.03;;;2.88;100.00
21011;BME280;10663;42.714;23.274;2022-11-15T05:45:52;95292.69;;;2.95;100.00
21011;BME280;10663;42.714;23.274;2022-11-15T05:47:42;95282.19;;;3.15;100.00
21011;BME280;10663;42.714;23.274;2022-11-15T05:49:35;95282.00;;;3.17;100.00
21011;BME280;10663;42.714;23.274;2022-11-15T05:51:27;95286.59;;;3.28;100.00
21011;BME280;10663;42.714;23.274;2022-11-15T05:53:19;95294.06;;;3.18;100.00
21011;BME280;10663;42.714;23.274;2022-11-15T05:55:10;95295.25;;;3.28;100.00
21011;BME280;10663;42.714;23.274;2022-11-15T05:57:00;95294.84;;;3.31;100.00
21011;BME280;10663;42.714;23.274;2022-11-15T05:58:49;95299.84;;;3.39;100.00
21011;BME280;10663;42.714;23.274;2022-11-15T06:00:38;95300.88;;;3.45;100.00
21011;BME280;10663;42.714;23.274;2022-11-15T06:02:29;95300.63;;;3.47;100.00
21011;BME280;10663;42.714;23.274;2022-11-15T06:04:18;95299.63;;;3.54;100.00
21011;BME280;10663;42.714;23.274;2022-11-15T06:06:08;95303.03;;;3.61;100.00
21011;BME280;10663;42.714;23.274;2022-11-15T06:07:58;95298.97;;;3.65;100.00
21011;BME280;10663;42.714;23.274;2022-11-15T06:09:48;95305.06;;;3.46;100.00
21011;BME280;10663;42.714;23.274;2022-11-15T06:11:37;95308.13;;;3.36;100.00
21011;BME280;10663;42.714;23.274;2022-11-15T06:13:27;95302.91;;;3.23;100.00
21011;BME280;10663;42.714;23.274;2022-11-15T06:15:16;95309.19;;;3.09;100.00
21011;BME280;10663;42.714;23.274;2022-11-15T06:17:06;95302.50;;;3.33;100.00
21011;BME280;10663;42.714;23.274;2022-11-15T06:18:55;95298.59;;;3.55;100.00
21011;BME280;10663;42.714;23.274;2022-11-15T06:20:45;95298.97;;;3.65;100.00
21011;BME280;10663;42.714;23.274;2022-11-15T06:22:35;95302.38;;;3.66;100.00
21011;BME280;10663;42.714;23.274;2022-11-15T06:24:24;95291.47;;;3.82;100.00
21011;BME280;10663;42.714;23.274;2022-11-15T06:26:13;95294.66;;;3.84;100.00
21011;BME280;10663;42.714;23.274;2022-11-15T06:28:04;95296.47;;;3.84;100.00
21011;BME280;10663;42.714;23.274;2022-11-15T06:29:53;95296.25;;;3.92;100.00
21011;BME280;10663;42.714;23.274;2022-11-15T06:31:43;95295.00;;;4.01;100.00
21011;BME280;10663;42.714;23.274;2022-11-15T06:33:32;95295.78;;;4.08;100.00
21011;BME280;10663;42.714;23.274;2022-11-15T06:35:22;95287.06;;;4.14;100.00
21011;BME280;10663;42.714;23.274;2022-11-15T06:37:11;95285.22;;;4.21;100.00
21011;BME280;10663;42.714;23.274;2022-11-15T06:39:00;95292.00;;;3.97;100.00
21011;BME280;10663;42.714;23.274;2022-11-15T06:40:50;95290.13;;;3.60;100.00
21011;BME280;10663;42.714;23.274;2022-11-15T06:42:39;95294.25;;;3.87;100.00
21011;BME280;10663;42.714;23.274;2022-11-15T06:44:29;95284.56;;;3.94;100.00
21011;BME280;10663;42.714;23.274;2022-11-15T06:46:19;95291.81;;;3.99;100.00
21011;BME280;10663;42.714;23.274;2022-11-15T06:48:08;95290.19;;;3.98;100.00
21011;BME280;10663;42.714;23.274;2022-11-15T06:49:57;95289.53;;;4.09;100.00
21011;BME280;10663;42.714;23.274;2022-11-15T06:51:47;95277.25;;;4.09;100.00
21011;BME280;10663;42.714;23.274;2022-11-15T06:53:36;95285.19;;;4.28;100.00
21011;BME280;10663;42.714;23.274;2022-11-15T06:55:26;95277.44;;;4.39;100.00
21011;BME280;10663;42.714;23.274;2022-11-15T06:57:15;95282.63;;;4.53;100.00
21011;BME280;10663;42.714;23.274;2022-11-15T06:59:04;95289.69;;;4.52;100.00
21011;BME280;10663;42.714;23.274;2022-11-15T07:00:58;95293.31;;;4.51;100.00
21011;BME280;10663;42.714;23.274;2022-11-15T07:02:48;95288.47;;;4.55;100.00
21011;BME280;10663;42.714;23.274;2022-11-15T07:04:37;95286.59;;;4.62;100.00
21011;BME280;10663;42.714;23.274;2022-11-15T07:06:27;95292.38;;;4.70;99.92
21011;BME280;10663;42.714;23.274;2022-11-15T07:08:16;95288.81;;;4.83;99.22
21011;BME280;10663;42.714;23.274;2022-11-15T07:10:07;95287.53;;;4.92;98.85
21011;BME280;10663;42.714;23.274;2022-11-15T07:11:57;95287.31;;;4.94;98.68
21011;BME280;10663;42.714;23.274;2022-11-15T07:13:46;95280.75;;;5.09;98.22
21011;BME280;10663;42.714;23.274;2022-11-15T07:15:35;95280.75;;;4.84;98.53
21011;BME280;10663;42.714;23.274;2022-11-15T07:17:24;95279.91;;;4.91;98.10
21011;BME280;10663;42.714;23.274;2022-11-15T07:19:13;95280.00;;;4.77;99.09
21011;BME280;10663;42.714;23.274;2022-11-15T07:21:04;95282.94;;;4.87;99.17
21011;BME280;10663;42.714;23.274;2022-11-15T07:23:02;95285.97;;;4.91;99.03
21011;BME280;10663;42.714;23.274;2022-11-15T07:24:51;95288.31;;;4.99;99.01
21011;BME280;10663;42.714;23.274;2022-11-15T07:26:41;95289.91;;;5.00;99.28
21011;BME280;10663;42.714;23.274;2022-11-15T07:28:30;95289.16;;;5.18;98.62
21011;BME280;10663;42.714;23.274;2022-11-15T07:30:22;95298.44;;;4.96;98.47
21011;BME280;10663;42.714;23.274;2022-11-15T07:32:11;95289.81;;;4.88;98.85
21011;BME280;10663;42.714;23.274;2022-11-15T07:34:01;95292.97;;;4.72;100.00
21011;BME280;10663;42.714;23.274;2022-11-15T07:35:51;95296.22;;;4.68;100.00
21011;BME280;10663;42.714;23.274;2022-11-15T07:37:40;95285.56;;;4.87;100.00
21011;BME280;10663;42.714;23.274;2022-11-15T07:39:29;95286.75;;;5.16;99.18
21011;BME280;10663;42.714;23.274;2022-11-15T07:41:19;95279.88;;;5.15;98.57
21011;BME280;10663;42.714;23.274;2022-11-15T07:43:08;95290.28;;;5.04;98.97
21011;BME280;10663;42.714;23.274;2022-11-15T07:44:58;95287.06;;;5.02;99.46
21011;BME280;10663;42.714;23.274;2022-11-15T07:46:47;95285.66;;;5.24;97.89
21011;BME280;10663;42.714;23.274;2022-11-15T07:48:38;95284.13;;;5.16;98.00
21011;BME280;10663;42.714;23.274;2022-11-15T07:50:31;95290.38;;;5.15;98.42
21011;BME280;10663;42.714;23.274;2022-11-15T07:52:20;95287.88;;;4.77;100.00
21011;BME280;10663;42.714;23.274;2022-11-15T07:54:10;95288.59;;;4.60;100.00
21011;BME280;10663;42.714;23.274;2022-11-15T07:55:59;95278.44;;;4.45;100.00
21011;BME280;10663;42.714;23.274;2022-11-15T07:57:49;95272.94;;;4.46;100.00
21011;BME280;10663;42.714;23.274;2022-11-15T07:59:39;95283.75;;;4.63;100.00
21011;BME280;10663;42.714;23.274;2022-11-15T08:01:28;95286.25;;;4.76;100.00
21011;BME280;10663;42.714;23.274;2022-11-15T08:03:18;95288.13;;;4.94;100.00
21011;BME280;10663;42.714;23.274;2022-11-15T08:05:08;95284.38;;;4.83;100.00
21011;BME280;10663;42.714;23.274;2022-11-15T08:06:57;95285.03;;;5.04;100.00
21011;BME280;10663;42.714;23.274;2022-11-15T08:08:47;95282.69;;;4.96;99.88
21011;BME280;10663;42.714;23.274;2022-11-15T08:10:37;95274.03;;;5.13;99.29
21011;BME280;10663;42.714;23.274;2022-11-15T08:12:28;95277.88;;;5.11;98.50
21011;BME280;10663;42.714;23.274;2022-11-15T08:14:20;95275.00;;;5.19;98.94
21011;BME280;10663;42.714;23.274;2022-11-15T08:16:11;95270.34;;;5.39;98.32
21011;BME280;10663;42.714;23.274;2022-11-15T08:18:08;95278.72;;;5.30;97.73
21011;BME280;10663;42.714;23.274;2022-11-15T08:19:57;95277.88;;;5.36;97.99
21011;BME280;10663;42.714;23.274;2022-11-15T08:21:47;95268.16;;;5.36;96.87
21011;BME280;10663;42.714;23.274;2022-11-15T08:23:36;95270.50;;;5.44;96.29
21011;BME280;10663;42.714;23.274;2022-11-15T08:25:28;95261.34;;;5.28;97.16
21011;BME280;10663;42.714;23.274;2022-11-15T08:27:18;95267.50;;;5.22;98.07
21011;BME280;10663;42.714;23.274;2022-11-15T08:29:08;95271.50;;;5.25;98.59
21011;BME280;10663;42.714;23.274;2022-11-15T08:30:57;95265.63;;;5.05;99.09
21011;BME280;10663;42.714;23.274;2022-11-15T08:32:49;95257.28;;;5.69;97.32
21011;BME280;10663;42.714;23.274;2022-11-15T08:34:39;95262.63;;;5.62;96.47
21011;BME280;10663;42.714;23.274;2022-11-15T08:36:29;95253.44;;;5.90;95.36
21011;BME280;10663;42.714;23.274;2022-11-15T08:38:18;95256.69;;;6.04;94.46
21011;BME280;10663;42.714;23.274;2022-11-15T08:40:08;95255.16;;;5.96;94.56
21011;BME280;10663;42.714;23.274;2022-11-15T08:41:58;95257.66;;;6.21;93.61
21011;BME280;10663;42.714;23.274;2022-11-15T08:43:48;95263.00;;;6.44;92.59
21011;BME280;10663;42.714;23.274;2022-11-15T08:45:37;95254.97;;;6.27;92.39
21011;BME280;10663;42.714;23.274;2022-11-15T08:47:27;95250.66;;;6.45;92.72
21011;BME280;10663;42.714;23.274;2022-11-15T08:49:16;95256.03;;;6.50;91.68
21011;BME280;10663;42.714;23.274;2022-11-15T08:51:06;95249.50;;;6.41;91.35
21011;BME280;10663;42.714;23.274;2022-11-15T08:52:55;95244.38;;;6.46;92.00
21011;BME280;10663;42.714;23.274;2022-11-15T08:54:45;95244.34;;;6.04;92.90
21011;BME280;10663;42.714;23.274;2022-11-15T08:56:35;95244.22;;;5.99;93.13
21011;BME280;10663;42.714;23.274;2022-11-15T08:58:25;95245.41;;;6.15;93.05
21011;BME280;10663;42.714;23.274;2022-11-15T09:00:14;95236.59;;;6.09;92.99
21011;BME280;10663;42.714;23.274;2022-11-15T09:02:04;95233.94;;;5.97;92.40
21011;BME280;10663;42.714;23.274;2022-11-15T09:03:54;95233.59;;;6.35;91.87
21011;BME280;10663;42.714;23.274;2022-11-15T09:05:44;95239.31;;;6.03;93.12
21011;BME280;10663;42.714;23.274;2022-11-15T09:07:33;95235.09;;;5.65;94.45
21011;BME280;10663;42.714;23.274;2022-11-15T09:09:23;95238.00;;;5.93;94.55
21011;BME280;10663;42.714;23.274;2022-11-15T09:11:12;95224.13;;;6.05;93.35
21011;BME280;10663;42.714;23.274;2022-11-15T09:13:02;95214.78;;;6.09;93.81
21011;BME280;10663;42.714;23.274;2022-11-15T09:14:51;95219.25;;;6.20;93.35
21011;BME280;10663;42.714;23.274;2022-11-15T09:16:40;95214.09;;;6.13;93.06
21011;BME280;10663;42.714;23.274;2022-11-15T09:18:30;95217.16;;;6.10;93.26
21011;BME280;10663;42.714;23.274;2022-11-15T09:20:20;95217.03;;;6.05;93.33
21011;BME280;10663;42.714;23.274;2022-11-15T09:22:09;95224.47;;;6.08;93.40
21011;BME280;10663;42.714;23.274;2022-11-15T09:23:59;95217.88;;;6.17;93.53
21011;BME280;10663;42.714;23.274;2022-11-15T09:25:49;95209.50;;;6.09;92.97
21011;BME280;10663;42.714;23.274;2022-11-15T09:27:38;95197.72;;;6.11;93.28
21011;BME280;10663;42.714;23.274;2022-11-15T09:29:27;95198.19;;;6.08;93.47
21011;BME280;10663;42.714;23.274;2022-11-15T09:31:17;95202.97;;;6.11;93.12
21011;BME280;10663;42.714;23.274;2022-11-15T09:33:11;95202.44;;;6.09;93.26
21011;BME280;10663;42.714;23.274;2022-11-15T09:35:01;95199.34;;;5.82;94.04
21011;BME280;10663;42.714;23.274;2022-11-15T09:36:51;95204.09;;;6.04;93.78
21011;BME280;10663;42.714;23.274;2022-11-15T09:38:41;95196.91;;;6.11;92.78
21011;BME280;10663;42.714;23.274;2022-11-15T09:40:36;95196.38;;;6.20;93.08
21011;BME280;10663;42.714;23.274;2022-11-15T09:42:53;95189.56;;;6.31;91.73
21011;BME280;10663;42.714;23.274;2022-11-15T09:45:06;95185.38;;;6.12;92.26
21011;BME280;10663;42.714;23.274;2022-11-15T09:47:31;95177.16;;;6.08;93.53
21011;BME280;10663;42.714;23.274;2022-11-15T09:49:36;95180.97;;;6.24;93.34
21011;BME280;10663;42.714;23.274;2022-11-15T09:51:32;95174.00;;;6.29;92.97
21011;BME280;10663;42.714;23.274;2022-11-15T09:53:04;95172.78;;;6.44;91.97
21011;BME280;10663;42.714;23.274;2022-11-15T09:54:37;95174.50;;;6.50;92.29
21011;BME280;10663;42.714;23.274;2022-11-15T09:56:20;95171.19;;;6.54;91.23
21011;BME280;10663;42.714;23.274;2022-11-15T09:58:02;95166.69;;;6.31;91.10
21011;BME280;10663;42.714;23.274;2022-11-15T10:03:12;95154.72;;;6.82;89.91
21011;BME280;10663;42.714;23.274;2022-11-15T10:04:44;95150.34;;;6.88;89.19
21011;BME280;10663;42.714;23.274;2022-11-15T10:06:23;95151.97;;;7.00;88.21
21011;BME280;10663;42.714;23.274;2022-11-15T10:11:35;95155.72;;;7.04;88.40
21011;BME280;10663;42.714;23.274;2022-11-15T10:14:48;95143.41;;;7.45;86.41